Time;durP1;ratioP1;P1;durP2;ratioP2;P2;SDS_P1;SDS_P2;PMS_P1;PMS_P2;Temp;Humidity;BMP_temperature;BMP_pressure;BME280_temperature;BME280_humidity;BME280_pressure;Samples;Min_cycle;Max_cycle;Signal;HPM_P1;HPM_P2
2021/10/15 00:00:24;;;;;;;4.45;3.15;;;15.00;92.50;;;;;;5074708;28;20107;-62
2021/10/15 00:02:52;;;;;;;4.05;2.60;;;15.00;92.50;;;;;;5074874;28;20037;-61
2021/10/15 00:05:19;;;;;;;5.03;2.35;;;15.00;92.60;;;;;;5074884;28;20429;-62
2021/10/15 00:07:47;;;;;;;4.13;2.72;;;15.00;92.40;;;;;;5074700;28;20040;-61
2021/10/15 00:10:14;;;;;;;4.13;2.20;;;15.00;92.30;;;;;;5075786;28;20041;-62
2021/10/15 00:12:42;;;;;;;4.38;2.67;;;15.00;92.60;;;;;;5076047;28;20445;-61
2021/10/15 00:15:09;;;;;;;4.60;2.70;;;15.00;92.80;;;;;;5075750;28;20052;-62
2021/10/15 00:17:37;;;;;;;5.50;2.38;;;15.00;92.80;;;;;;5057796;28;20048;-61
2021/10/15 00:20:05;;;;;;;6.00;2.63;;;15.00;92.60;;;;;;5075663;28;20127;-61
2021/10/15 00:22:33;;;;;;;5.22;2.22;;;15.00;92.60;;;;;;5058099;28;20044;-62
2021/10/15 00:25:01;;;;;;;3.85;2.80;;;15.00;92.60;;;;;;5074664;28;20040;-61
2021/10/15 00:27:28;;;;;;;4.03;2.53;;;15.00;92.30;;;;;;5074541;28;20058;-61
2021/10/15 00:29:56;;;;;;;3.55;2.10;;;15.10;92.30;;;;;;5057762;28;20041;-61
2021/10/15 00:32:24;;;;;;;6.63;2.88;;;15.00;92.50;;;;;;5075458;28;20102;-61
2021/10/15 00:34:51;;;;;;;5.53;2.70;;;15.00;92.40;;;;;;5074263;28;20055;-61
2021/10/15 00:37:19;;;;;;;5.25;2.78;;;15.10;92.00;;;;;;5075432;28;20072;-61
2021/10/15 00:39:47;;;;;;;5.13;3.00;;;15.00;91.80;;;;;;5075296;28;20074;-61
2021/10/15 00:42:15;;;;;;;7.50;2.47;;;15.10;91.80;;;;;;5073991;28;20033;-61
2021/10/15 00:44:42;;;;;;;4.88;2.55;;;15.10;92.00;;;;;;5069896;28;20032;-60
2021/10/15 00:47:10;;;;;;;4.30;2.33;;;15.10;92.20;;;;;;5074463;28;20079;-62
2021/10/15 00:49:38;;;;;;;7.50;3.30;;;15.10;92.40;;;;;;5073813;28;20044;-61
2021/10/15 00:52:08;;;;;;;7.95;2.83;;;15.00;92.70;;;;;;5073941;28;20105;-61
2021/10/15 00:54:36;;;;;;;4.57;2.35;;;15.00;92.70;;;;;;5056797;28;20057;-61
2021/10/15 00:57:06;;;;;;;5.80;2.45;;;15.00;92.10;;;;;;5073863;28;20080;-61
2021/10/15 00:59:33;;;;;;;4.97;2.55;;;14.90;91.90;;;;;;5057036;28;20139;-61
2021/10/15 01:02:01;;;;;;;4.25;2.17;;;15.00;92.10;;;;;;5073402;28;20087;-61
2021/10/15 01:04:28;;;;;;;4.10;2.00;;;15.00;92.30;;;;;;5073786;28;20071;-61
2021/10/15 01:06:56;;;;;;;5.00;2.45;;;15.00;92.50;;;;;;5057226;28;20072;-61
2021/10/15 01:09:24;;;;;;;3.88;2.13;;;15.00;92.60;;;;;;5074885;28;20402;-61
2021/10/15 01:11:53;;;;;;;6.05;2.70;;;15.00;92.70;;;;;;5073471;28;20105;-61
2021/10/15 01:14:21;;;;;;;5.00;2.28;;;15.00;92.60;;;;;;5074702;28;20049;-62
2021/10/15 01:16:49;;;;;;;4.93;2.33;;;15.00;92.80;;;;;;5057248;28;20044;-61
2021/10/15 01:19:16;;;;;;;7.50;3.10;;;15.00;93.00;;;;;;5072935;28;20040;-62
2021/10/15 01:21:44;;;;;;;5.00;2.80;;;15.00;93.00;;;;;;5074402;28;20391;-61
2021/10/15 01:24:14;;;;;;;4.15;2.35;;;14.90;92.90;;;;;;5073130;28;20036;-61
2021/10/15 01:26:42;;;;;;;4.88;2.60;;;15.00;93.00;;;;;;5073408;28;20048;-61
2021/10/15 01:29:09;;;;;;;5.28;2.75;;;14.90;93.10;;;;;;5073115;28;20068;-62
2021/10/15 01:31:38;;;;;;;6.65;2.85;;;14.90;93.10;;;;;;5074219;28;20068;-62
2021/10/15 01:34:05;;;;;;;3.33;1.88;;;15.00;93.20;;;;;;5040217;28;20044;-61
2021/10/15 01:36:33;;;;;;;3.67;2.20;;;15.00;93.40;;;;;;5056792;28;20506;-61
2021/10/15 01:39:01;;;;;;;4.22;2.35;;;14.90;93.40;;;;;;5072361;28;20121;-62
2021/10/15 01:41:28;;;;;;;4.68;2.60;;;14.90;93.50;;;;;;5074204;28;20119;-62
2021/10/15 01:43:56;;;;;;;8.07;2.35;;;14.90;93.60;;;;;;5072600;28;20052;-61
2021/10/15 01:46:23;;;;;;;8.43;2.55;;;14.90;93.50;;;;;;5072704;28;20049;-61
2021/10/15 01:48:51;;;;;;;3.88;1.88;;;14.90;93.40;;;;;;5074042;28;20032;-61
2021/10/15 01:51:18;;;;;;;3.85;2.17;;;14.90;93.40;;;;;;5072654;28;20051;-61
2021/10/15 01:53:46;;;;;;;7.95;2.60;;;14.90;93.40;;;;;;5073962;28;20463;-61
2021/10/15 01:56:13;;;;;;;3.78;2.35;;;14.90;93.20;;;;;;5073034;28;20390;-62
2021/10/15 01:58:43;;;;;;;4.15;3.05;;;14.90;93.20;;;;;;5056509;28;20055;-61
2021/10/15 02:01:11;;;;;;;4.00;2.10;;;14.90;93.00;;;;;;5072761;28;20517;-61
2021/10/15 02:03:38;;;;;;;5.25;2.53;;;14.80;93.00;;;;;;5056193;28;20048;-61
2021/10/15 02:06:06;;;;;;;5.53;2.30;;;14.80;93.10;;;;;;5072578;28;20098;-61
2021/10/15 02:08:34;;;;;;;5.47;2.17;;;14.90;93.00;;;;;;5056091;28;20147;-62
2021/10/15 02:11:02;;;;;;;5.60;2.60;;;14.90;93.10;;;;;;5072450;28;20068;-61
2021/10/15 02:13:29;;;;;;;27.63;3.55;;;14.80;93.20;;;;;;5072469;28;20127;-61
2021/10/15 02:15:59;;;;;;;7.13;3.15;;;14.90;93.30;;;;;;5073686;28;20040;-61
2021/10/15 02:18:26;;;;;;;4.65;2.72;;;14.90;93.20;;;;;;5072576;28;20037;-61
2021/10/15 02:20:54;;;;;;;5.78;2.20;;;14.90;93.40;;;;;;5072413;28;20059;-61
2021/10/15 02:23:23;;;;;;;6.47;3.25;;;14.90;93.30;;;;;;5055922;28;20052;-61
2021/10/15 02:25:51;;;;;;;6.63;3.10;;;14.90;93.30;;;;;;5072363;28;20072;-61
2021/10/15 02:28:19;;;;;;;5.70;2.70;;;14.90;93.30;;;;;;5055490;28;20053;-61
2021/10/15 02:30:46;;;;;;;5.07;2.40;;;14.90;93.40;;;;;;5072274;28;20471;-61
2021/10/15 02:33:14;;;;;;;5.63;2.40;;;14.90;93.50;;;;;;5072455;28;20056;-61
2021/10/15 02:35:41;;;;;;;4.80;2.67;;;14.90;93.70;;;;;;5073374;28;20086;-61
2021/10/15 02:38:09;;;;;;;4.13;2.00;;;14.80;93.80;;;;;;5055721;28;20033;-61
2021/10/15 02:40:37;;;;;;;10.50;2.65;;;14.90;93.90;;;;;;5073293;28;20045;-61
2021/10/15 02:43:04;;;;;;;3.97;2.10;;;14.80;93.80;;;;;;5073401;28;20047;-61
2021/10/15 02:45:37;;;;;;;7.00;2.90;;;14.80;93.40;;;;;;5072190;28;20442;-61
2021/10/15 02:48:06;;;;;;;3.78;2.20;;;14.90;93.10;;;;;;5072175;28;20055;-61
2021/10/15 02:50:34;;;;;;;5.45;2.00;;;14.80;93.20;;;;;;5073183;28;20509;-61
2021/10/15 02:53:02;;;;;;;7.05;2.63;;;14.80;93.20;;;;;;5071962;28;20040;-62
2021/10/15 02:55:29;;;;;;;4.15;1.75;;;14.80;93.60;;;;;;5072101;28;20407;-61
2021/10/15 02:57:57;;;;;;;4.00;2.05;;;14.80;93.40;;;;;;5072060;28;20106;-61
2021/10/15 03:00:25;;;;;;;4.40;2.33;;;14.90;93.30;;;;;;5071721;28;20052;-62
2021/10/15 03:02:55;;;;;;;3.10;1.98;;;14.90;93.40;;;;;;5073265;28;20402;-61
2021/10/15 03:05:22;;;;;;;5.57;3.00;;;14.90;93.50;;;;;;5073145;28;20041;-62
2021/10/15 03:07:50;;;;;;;5.25;2.88;;;14.80;93.60;;;;;;5075023;28;20055;-61
2021/10/15 03:10:17;;;;;;;4.07;2.28;;;14.80;93.80;;;;;;5075774;28;20080;-61
2021/10/15 03:12:45;;;;;;;5.30;2.33;;;14.90;93.90;;;;;;5075629;28;20086;-61
2021/10/15 03:15:13;;;;;;;5.60;2.20;;;14.90;94.10;;;;;;5075906;28;20079;-61
2021/10/15 03:17:42;;;;;;;7.32;2.60;;;14.90;94.50;;;;;;5075679;28;20110;-61
2021/10/15 03:20:10;;;;;;;8.75;3.53;;;14.90;94.40;;;;;;5075554;28;20041;-61
2021/10/15 03:22:38;;;;;;;5.78;2.17;;;14.90;94.40;;;;;;5059215;28;20048;-61
2021/10/15 03:25:07;;;;;;;5.45;2.17;;;14.90;94.40;;;;;;5058662;28;20457;-62
2021/10/15 03:27:34;;;;;;;3.13;2.05;;;14.90;94.40;;;;;;5075804;28;20056;-61
2021/10/15 03:30:03;;;;;;;2.72;1.70;;;14.90;94.50;;;;;;5076774;28;20113;-61
2021/10/15 03:32:31;;;;;;;6.28;1.88;;;15.00;94.50;;;;;;5075337;28;20494;-61
2021/10/15 03:34:59;;;;;;;8.32;2.80;;;15.00;94.50;;;;;;5075364;28;20047;-61
2021/10/15 03:37:27;;;;;;;4.40;2.17;;;14.90;94.50;;;;;;5075190;28;20473;-61
2021/10/15 03:39:55;;;;;;;3.63;1.73;;;14.90;94.40;;;;;;5075192;28;20050;-62
2021/10/15 03:42:22;;;;;;;4.18;2.05;;;14.90;94.50;;;;;;5075101;28;20056;-61
2021/10/15 03:44:50;;;;;;;13.65;2.92;;;14.80;94.60;;;;;;5076207;28;20071;-61
2021/10/15 03:47:17;;;;;;;4.57;2.22;;;14.90;94.60;;;;;;5075112;28;20052;-61
2021/10/15 03:49:45;;;;;;;3.50;1.98;;;14.90;94.90;;;;;;5076361;28;20062;-61
2021/10/15 03:52:13;;;;;;;7.05;2.22;;;14.90;95.20;;;;;;5074944;28;20044;-61
2021/10/15 03:54:40;;;;;;;8.32;2.13;;;14.90;95.60;;;;;;5076300;28;20032;-61
2021/10/15 03:57:08;;;;;;;7.07;2.38;;;14.80;95.90;;;;;;5074987;28;20551;-61
2021/10/15 03:59:36;;;;;;;4.18;2.22;;;14.90;96.40;;;;;;5075009;28;20040;-61
2021/10/15 04:02:04;;;;;;;11.88;2.17;;;14.90;96.30;;;;;;5074629;28;20128;-61
2021/10/15 04:04:31;;;;;;;6.80;2.50;;;14.90;96.60;;;;;;5075037;28;20486;-61
2021/10/15 04:06:59;;;;;;;5.32;2.40;;;15.00;96.60;;;;;;5058466;28;20049;-61
2021/10/15 04:09:26;;;;;;;5.78;2.42;;;15.00;96.70;;;;;;5074724;28;20177;-61
2021/10/15 04:11:55;;;;;;;5.35;2.30;;;15.00;96.80;;;;;;5074447;28;20048;-61
2021/10/15 04:14:24;;;;;;;3.08;1.83;;;14.90;97.00;;;;;;5074939;28;20057;-61
2021/10/15 04:16:51;;;;;;;5.07;2.33;;;14.90;97.00;;;;;;5074457;28;20102;-61
2021/10/15 04:19:19;;;;;;;12.73;2.83;;;14.90;97.20;;;;;;5057010;28;20045;-61
2021/10/15 04:21:47;;;;;;;6.25;2.58;;;14.90;97.20;;;;;;5075645;28;20071;-61
2021/10/15 04:24:14;;;;;;;6.18;2.50;;;14.90;97.30;;;;;;5074437;28;20399;-61
2021/10/15 04:26:42;;;;;;;4.38;2.28;;;14.90;97.50;;;;;;5074315;28;20044;-61
2021/10/15 04:29:09;;;;;;;7.57;2.53;;;14.90;97.50;;;;;;5074369;28;20052;-62
2021/10/15 04:31:37;;;;;;;8.77;2.30;;;14.90;97.70;;;;;;5074520;28;20048;-61
2021/10/15 04:34:05;;;;;;;6.22;2.22;;;14.80;97.80;;;;;;5075642;28;20036;-61
2021/10/15 04:36:32;;;;;;;7.95;2.20;;;14.90;97.90;;;;;;5075496;28;20050;-61
2021/10/15 04:39:00;;;;;;;7.68;2.80;;;14.90;98.00;;;;;;5074088;28;20483;-61
2021/10/15 04:41:27;;;;;;;5.55;2.42;;;14.90;98.00;;;;;;5073963;28;20723;-61
2021/10/15 04:43:56;;;;;;;5.00;2.30;;;14.90;97.90;;;;;;5073968;28;20049;-61
2021/10/15 04:46:23;;;;;;;4.35;1.75;;;14.80;98.00;;;;;;5073608;28;20571;-61
2021/10/15 04:48:51;;;;;;;5.40;1.85;;;14.80;98.00;;;;;;5056637;28;20055;-61
2021/10/15 04:51:19;;;;;;;4.65;2.30;;;14.90;97.70;;;;;;5056692;28;20045;-61
2021/10/15 04:53:46;;;;;;;7.22;2.00;;;14.90;97.60;;;;;;5073631;28;20048;-61
2021/10/15 04:56:14;;;;;;;5.55;3.17;;;14.80;97.70;;;;;;5072845;28;20136;-61
2021/10/15 04:58:42;;;;;;;4.18;2.42;;;14.80;97.70;;;;;;5072954;28;20041;-62
2021/10/15 05:01:10;;;;;;;5.85;2.05;;;14.80;97.80;;;;;;5073333;28;20044;-61
2021/10/15 05:03:37;;;;;;;3.80;2.20;;;14.80;97.80;;;;;;5074682;28;20052;-61
2021/10/15 05:06:08;;;;;;;7.00;2.50;;;14.80;97.90;;;;;;5073370;28;20101;-61
2021/10/15 05:11:44;;;;;;;5.78;2.20;;;14.80;98.00;;;;;;5044779;28;20049;-61
2021/10/15 05:14:13;;;;;;;6.97;2.17;;;14.80;98.00;;;;;;5056483;28;20048;-61
2021/10/15 05:16:41;;;;;;;6.90;1.88;;;14.80;98.10;;;;;;5073677;28;20185;-61
2021/10/15 05:19:09;;;;;;;3.55;1.67;;;14.80;98.00;;;;;;5074498;28;20055;-61
2021/10/15 05:21:38;;;;;;;3.25;1.73;;;14.80;98.10;;;;;;5073388;28;20040;-61
2021/10/15 05:24:06;;;;;;;5.03;2.20;;;14.80;98.00;;;;;;5073096;28;20131;-61
2021/10/15 05:26:33;;;;;;;4.70;1.52;;;14.80;98.10;;;;;;5073255;28;20394;-61
2021/10/15 05:29:01;;;;;;;8.88;2.17;;;14.80;98.20;;;;;;5073020;28;20086;-61
2021/10/15 05:31:29;;;;;;;6.05;2.65;;;14.80;98.30;;;;;;5072586;28;20059;-61
2021/10/15 05:33:57;;;;;;;7.07;2.10;;;14.80;98.30;;;;;;5072894;28;20083;-61
2021/10/15 05:36:24;;;;;;;3.90;2.38;;;14.80;98.30;;;;;;5074022;28;20064;-61
2021/10/15 05:38:53;;;;;;;9.70;2.00;;;14.80;98.30;;;;;;5072825;28;20094;-61
2021/10/15 05:41:20;;;;;;;5.95;1.88;;;14.70;98.30;;;;;;5023980;28;20056;-61
2021/10/15 05:43:48;;;;;;;4.50;1.80;;;14.80;98.20;;;;;;5072750;28;20060;-61
2021/10/15 05:46:16;;;;;;;15.18;3.35;;;14.90;98.40;;;;;;5072756;28;20040;-61
2021/10/15 05:48:43;;;;;;;7.13;2.83;;;14.90;98.50;;;;;;5072960;28;20041;-61
2021/10/15 05:51:11;;;;;;;6.93;2.15;;;14.80;98.70;;;;;;5073657;28;20112;-61
2021/10/15 05:53:39;;;;;;;2.40;1.45;;;14.90;98.70;;;;;;5072766;28;20540;-61
2021/10/15 05:58:53;;;;;;;7.03;2.08;;;14.90;98.70;;;;;;5056215;28;20094;-61
2021/10/15 06:01:24;;;;;;;3.35;1.77;;;14.90;98.80;;;;;;5072499;28;20131;-61
2021/10/15 06:14:41;;;;;;;2.37;1.20;;;14.90;98.50;;;;;;5055928;28;20048;-61
2021/10/15 06:17:16;;;;;;;8.63;2.72;;;14.90;98.50;;;;;;5072469;28;20125;-61
2021/10/15 06:19:53;;;;;;;5.22;1.95;;;14.90;98.40;;;;;;5072783;28;20037;-61
2021/10/15 06:22:25;;;;;;;4.03;1.67;;;14.90;98.30;;;;;;5072500;28;20124;-62
2021/10/15 06:24:54;;;;;;;6.53;2.22;;;14.90;98.20;;;;;;5072334;28;20036;-61
2021/10/15 06:27:24;;;;;;;4.22;2.05;;;15.00;98.30;;;;;;5072109;28;20048;-61
2021/10/15 06:29:52;;;;;;;3.15;1.80;;;15.00;98.40;;;;;;5055358;28;20082;-61
2021/10/15 06:32:22;;;;;;;5.18;1.88;;;15.10;98.30;;;;;;5071893;28;20124;-61
2021/10/15 06:34:50;;;;;;;5.45;2.13;;;15.10;98.30;;;;;;5071934;28;20082;-61
2021/10/15 06:37:18;;;;;;;9.48;2.70;;;15.10;98.20;;;;;;5055544;28;20041;-61
2021/10/15 06:39:48;;;;;;;6.57;2.67;;;15.10;98.30;;;;;;5072213;28;20494;-62
2021/10/15 06:42:15;;;;;;;5.68;1.95;;;15.10;98.50;;;;;;5074086;28;20052;-61
2021/10/15 06:44:43;;;;;;;4.63;1.88;;;15.20;98.80;;;;;;5077444;28;20041;-61
2021/10/15 06:47:11;;;;;;;6.90;2.42;;;15.20;98.90;;;;;;5059481;28;20040;-61
2021/10/15 06:49:38;;;;;;;4.43;2.33;;;15.10;98.90;;;;;;5075962;28;20481;-61
2021/10/15 06:52:06;;;;;;;4.40;1.60;;;15.10;99.10;;;;;;5075915;28;20123;-61
2021/10/15 06:54:34;;;;;;;4.35;1.83;;;15.10;99.10;;;;;;5059614;28;20140;-61
2021/10/15 06:57:02;;;;;;;4.40;1.95;;;15.10;99.20;;;;;;5076034;28;20075;-61
2021/10/15 06:59:30;;;;;;;6.07;2.20;;;15.10;99.00;;;;;;5075990;28;20046;-62
2021/10/15 07:01:57;;;;;;;3.70;2.05;;;15.10;99.00;;;;;;5075723;28;20403;-61
2021/10/15 07:04:25;;;;;;;8.38;2.20;;;15.10;99.20;;;;;;5075911;28;20048;-61
2021/10/15 07:06:52;;;;;;;9.43;2.13;;;15.10;99.20;;;;;;5075764;28;20045;-61
2021/10/15 07:09:20;;;;;;;7.68;2.83;;;15.20;99.30;;;;;;5075211;28;20414;-61
2021/10/15 07:11:48;;;;;;;4.78;1.75;;;15.10;98.80;;;;;;5076251;28;20051;-62
2021/10/15 07:14:16;;;;;;;5.07;1.63;;;15.10;98.40;;;;;;5075467;28;20048;-61
2021/10/15 07:16:44;;;;;;;7.55;1.80;;;15.10;98.30;;;;;;5058851;28;20060;-61
2021/10/15 07:19:12;;;;;;;4.70;1.70;;;15.20;98.20;;;;;;5058232;28;20499;-62
2021/10/15 07:21:41;;;;;;;3.17;1.40;;;15.20;98.20;;;;;;5076246;28;20490;-62
2021/10/15 07:24:09;;;;;;;5.65;1.80;;;15.20;98.20;;;;;;5075201;28;20049;-62
2021/10/15 07:26:38;;;;;;;6.60;1.83;;;15.20;98.50;;;;;;5056405;28;20170;-62
2021/10/15 07:29:07;;;;;;;3.88;2.05;;;15.10;98.40;;;;;;5051144;28;20045;-62
2021/10/15 07:31:35;;;;;;;4.50;1.77;;;15.20;98.20;;;;;;5074505;28;20033;-63
2021/10/15 07:34:05;;;;;;;5.28;1.63;;;15.20;98.40;;;;;;5042130;28;20055;-62
2021/10/15 07:36:33;;;;;;;5.65;1.60;;;15.10;98.60;;;;;;5075272;28;20055;-62
2021/10/15 07:39:01;;;;;;;2.53;1.10;;;15.10;98.50;;;;;;5074413;28;20040;-62
2021/10/15 07:41:28;;;;;;;6.95;1.92;;;15.10;98.00;;;;;;5075420;28;20059;-62
2021/10/15 07:43:56;;;;;;;2.60;1.48;;;15.10;98.00;;;;;;5074619;28;20464;-62
2021/10/15 07:46:24;;;;;;;4.78;2.55;;;15.10;98.10;;;;;;5057291;28;20520;-62
2021/10/15 07:48:52;;;;;;;4.38;2.08;;;15.10;97.90;;;;;;5074737;28;20036;-62
2021/10/15 07:51:19;;;;;;;3.45;1.88;;;15.00;98.00;;;;;;5076219;28;20045;-61
2021/10/15 07:53:47;;;;;;;5.05;1.60;;;15.00;98.00;;;;;;5074967;28;20094;-62
2021/10/15 07:56:15;;;;;;;4.35;1.40;;;15.00;97.60;;;;;;5076005;28;20123;-62
2021/10/15 07:58:42;;;;;;;1.83;1.10;;;15.00;97.40;;;;;;5058040;28;20052;-62
2021/10/15 08:01:10;;;;;;;4.57;1.27;;;15.00;97.00;;;;;;5058288;28;20052;-61
2021/10/15 08:03:38;;;;;;;2.42;1.48;;;15.00;96.60;;;;;;5074800;28;20067;-62
2021/10/15 08:06:05;;;;;;;4.60;1.23;;;15.00;96.60;;;;;;5041204;28;20041;-62
2021/10/15 08:08:33;;;;;;;3.55;1.50;;;15.00;96.50;;;;;;5091678;28;20099;-62
2021/10/15 08:11:01;;;;;;;3.60;1.67;;;15.00;96.70;;;;;;5074292;28;20090;-62
2021/10/15 08:13:28;;;;;;;3.15;1.15;;;15.10;96.40;;;;;;5057648;28;20410;-63
2021/10/15 08:15:57;;;;;;;5.55;1.55;;;15.10;96.40;;;;;;5074697;28;20461;-62
2021/10/15 08:18:25;;;;;;;3.00;1.00;;;15.10;96.50;;;;;;5075083;28;20558;-62
2021/10/15 08:20:57;;;;;;;3.28;1.13;;;15.20;96.40;;;;;;5057805;28;20517;-62
2021/10/15 08:23:26;;;;;;;2.17;1.02;;;15.30;96.50;;;;;;5073733;28;20133;-61
2021/10/15 08:25:55;;;;;;;3.85;1.20;;;15.30;96.10;;;;;;5073295;28;20472;-61
2021/10/15 08:28:24;;;;;;;4.28;1.40;;;15.30;96.00;;;;;;5057192;28;20068;-62
2021/10/15 08:31:04;;;;;;;2.85;1.17;;;15.30;95.50;;;;;;5042533;28;20083;-62
2021/10/15 08:33:32;;;;;;;3.83;1.60;;;15.40;95.30;;;;;;5073602;28;20055;-62
2021/10/15 08:36:00;;;;;;;2.67;1.30;;;15.40;95.40;;;;;;5073822;28;20048;-61
2021/10/15 08:38:28;;;;;;;2.25;1.33;;;15.40;95.40;;;;;;5073554;28;20056;-62
2021/10/15 08:40:55;;;;;;;2.40;0.95;;;15.40;95.40;;;;;;5075311;28;20125;-61
2021/10/15 08:43:36;;;;;;;4.55;1.10;;;15.40;95.40;;;;;;5057376;28;20064;-61
2021/10/15 08:46:05;;;;;;;2.90;1.20;;;15.40;95.70;;;;;;5055131;28;20037;-62
2021/10/15 08:48:39;;;;;;;3.42;1.35;;;15.50;95.60;;;;;;5057700;28;20398;-61
2021/10/15 08:51:08;;;;;;;5.80;1.50;;;15.40;95.60;;;;;;5041290;28;20079;-61
2021/10/15 08:53:52;;;;;;;4.72;1.73;;;15.50;95.50;;;;;;5056089;28;20044;-62
2021/10/15 08:56:21;;;;;;;8.82;1.42;;;15.50;95.30;;;;;;5074199;28;20513;-62
2021/10/15 08:58:56;;;;;;;3.75;1.15;;;15.50;95.30;;;;;;5053481;28;20053;-61
2021/10/15 09:01:38;;;;;;;2.45;1.65;;;15.60;95.40;;;;;;5053389;28;20047;-61
2021/10/15 09:04:07;;;;;;;3.17;1.05;;;15.60;95.20;;;;;;5068222;28;20094;-62
2021/10/15 09:06:36;;;;;;;3.65;1.13;;;15.60;95.20;;;;;;5073568;28;20036;-62
2021/10/15 09:09:05;;;;;;;5.90;1.27;;;15.70;95.20;;;;;;5072648;28;20036;-62
2021/10/15 09:11:37;;;;;;;5.90;1.20;;;15.70;95.20;;;;;;5073368;28;20045;-62
2021/10/15 09:14:16;;;;;;;3.55;1.23;;;15.70;94.80;;;;;;5073875;28;20550;-62
2021/10/15 09:17:06;;;;;;;2.28;1.15;;;15.80;94.70;;;;;;5073446;28;20045;-62
2021/10/15 09:19:37;;;;;;;3.58;1.15;;;15.70;94.40;;;;;;5057269;28;20074;-63
2021/10/15 09:22:25;;;;;;;4.97;1.25;;;15.70;94.30;;;;;;5056908;28;20044;-63
2021/10/15 09:25:05;;;;;;;5.25;1.23;;;15.70;94.60;;;;;;5074622;28;20047;-63
2021/10/15 09:27:38;;;;;;;2.88;1.10;;;15.80;95.00;;;;;;5074598;28;20037;-63
2021/10/15 09:30:07;;;;;;;2.40;1.33;;;15.80;95.20;;;;;;5074219;28;20048;-62
2021/10/15 09:32:40;;;;;;;1.88;0.85;;;15.70;95.30;;;;;;5056598;28;20071;-62
2021/10/15 09:35:10;;;;;;;2.67;1.02;;;15.70;95.60;;;;;;5074377;28;20048;-63
2021/10/15 09:37:40;;;;;;;1.77;1.10;;;15.90;95.90;;;;;;5074413;28;20040;-62
2021/10/15 09:40:19;;;;;;;1.50;0.90;;;15.90;96.00;;;;;;5072315;28;20053;-61
2021/10/15 09:42:52;;;;;;;4.60;1.50;;;16.00;96.20;;;;;;5073299;28;20055;-61
2021/10/15 09:45:21;;;;;;;4.57;1.33;;;16.10;96.10;;;;;;5072801;28;20037;-62
2021/10/15 09:47:58;;;;;;;3.92;1.20;;;16.10;96.50;;;;;;5073004;28;20502;-62
2021/10/15 09:50:31;;;;;;;2.72;1.33;;;16.30;96.70;;;;;;5039714;28;20048;-61
2021/10/15 09:53:04;;;;;;;6.15;1.13;;;16.30;96.60;;;;;;5050425;28;20032;-61
2021/10/15 09:55:43;;;;;;;1.63;1.13;;;16.40;96.90;;;;;;5073773;28;20495;-62
2021/10/15 09:58:17;;;;;;;3.65;1.23;;;16.40;97.30;;;;;;5071837;28;20048;-62
2021/10/15 10:00:48;;;;;;;4.80;2.60;;;16.40;97.60;;;;;;5055599;28;20501;-61
2021/10/15 10:03:16;;;;;;;1.83;1.00;;;16.40;97.70;;;;;;5039542;28;20055;-61
2021/10/15 10:05:45;;;;;;;2.35;0.95;;;16.40;97.30;;;;;;5070996;28;20032;-62
2021/10/15 10:08:12;;;;;;;5.90;1.52;;;16.30;97.00;;;;;;5052593;28;20127;-61
2021/10/15 10:10:42;;;;;;;4.85;1.08;;;16.30;96.80;;;;;;5055023;28;20495;-62
2021/10/15 10:13:11;;;;;;;6.13;2.03;;;16.30;96.80;;;;;;5053951;28;20056;-62
2021/10/15 10:15:42;;;;;;;5.13;1.73;;;16.30;96.80;;;;;;5070670;28;20494;-61
2021/10/15 10:21:06;;;;;;;2.88;1.77;;;16.20;97.10;;;;;;5053612;28;20132;-61
2021/10/15 10:23:43;;;;;;;1.80;1.05;;;16.10;97.30;;;;;;5031741;28;20517;-61
2021/10/15 10:26:12;;;;;;;2.63;1.27;;;16.20;97.30;;;;;;5039668;28;20391;-60
2021/10/15 10:28:40;;;;;;;2.15;0.98;;;16.20;96.80;;;;;;5072720;28;20521;-61
2021/10/15 10:31:22;;;;;;;3.65;1.00;;;16.30;96.90;;;;;;5072398;28;20040;-60
2021/10/15 10:34:10;;;;;;;6.05;1.15;;;16.30;96.80;;;;;;5072158;28;20055;-59
2021/10/15 10:36:38;;;;;;;2.63;1.30;;;16.30;96.80;;;;;;5054323;28;20044;-60
2021/10/15 10:39:19;;;;;;;4.07;1.45;;;16.40;97.00;;;;;;5072456;28;20401;-61
2021/10/15 10:42:08;;;;;;;5.53;2.22;;;16.40;97.20;;;;;;5072191;28;20518;-61
2021/10/15 10:44:37;;;;;;;3.17;1.33;;;16.40;97.60;;;;;;5072474;28;20036;-65
2021/10/15 10:47:19;;;;;;;4.10;1.20;;;16.40;97.70;;;;;;5071946;28;20061;-64
2021/10/15 10:50:03;;;;;;;4.15;1.58;;;16.40;97.90;;;;;;5073050;28;20041;-65
2021/10/15 10:52:52;;;;;;;6.45;2.35;;;16.40;97.90;;;;;;5071772;28;20048;-65
2021/10/15 10:55:46;;;;;;;2.45;1.75;;;16.40;98.30;;;;;;5062643;28;20052;-65
2021/10/15 10:58:31;;;;;;;4.60;2.05;;;16.40;98.30;;;;;;5035388;28;20139;-66
2021/10/15 11:01:26;;;;;;;7.57;1.40;;;16.40;98.30;;;;;;5052914;28;20041;-66
2021/10/15 11:03:59;;;;;;;9.25;1.40;;;16.30;98.30;;;;;;5063037;28;20040;-67
2021/10/15 11:07:05;;;;;;;8.85;1.95;;;16.30;98.30;;;;;;5055560;28;20047;-67
2021/10/15 11:09:49;;;;;;;3.47;1.50;;;16.20;98.00;;;;;;5039404;28;20059;-67
2021/10/15 11:12:26;;;;;;;4.38;1.90;;;16.20;97.90;;;;;;5071739;28;20534;-66
2021/10/15 11:15:01;;;;;;;3.22;1.27;;;16.10;97.90;;;;;;5054879;28;20162;-67
2021/10/15 11:17:41;;;;;;;3.30;1.10;;;16.10;98.30;;;;;;5055659;28;20094;-68
2021/10/15 11:20:19;;;;;;;4.68;1.20;;;16.10;98.60;;;;;;5071451;28;20040;-67
2021/10/15 11:22:56;;;;;;;1.98;1.10;;;16.10;98.80;;;;;;5069308;28;20049;-67
2021/10/15 11:25:27;;;;;;;3.55;1.30;;;16.10;99.20;;;;;;5069947;28;20059;-65
2021/10/15 11:28:01;;;;;;;1.75;1.00;;;16.10;99.60;;;;;;5053773;28;20567;-68
2021/10/15 11:30:33;;;;;;;2.38;1.23;;;16.00;99.50;;;;;;5071316;28;20391;-66
2021/10/15 11:33:03;;;;;;;2.38;1.15;;;16.00;99.60;;;;;;5066854;28;20073;-67
2021/10/15 11:35:34;;;;;;;2.17;0.93;;;16.00;99.70;;;;;;5067320;28;20056;-67
2021/10/15 11:38:06;;;;;;;6.65;1.92;;;15.90;99.80;;;;;;5074809;28;20044;-66
2021/10/15 11:40:38;;;;;;;10.93;1.90;;;16.00;99.80;;;;;;5066385;28;20436;-64
2021/10/15 11:43:25;;;;;;;2.05;1.35;;;16.00;99.90;;;;;;5052942;28;20045;-64
2021/10/15 11:46:20;;;;;;;2.45;1.05;;;16.00;99.90;;;;;;5074728;28;20052;-63
2021/10/15 11:48:51;;;;;;;2.92;1.98;;;16.00;99.90;;;;;;5073324;28;20060;-63
2021/10/15 11:51:23;;;;;;;3.40;1.60;;;15.90;99.90;;;;;;5053856;28;20506;-64
2021/10/15 11:53:56;;;;;;;1.80;1.17;;;15.80;99.90;;;;;;5064774;28;20524;-65
2021/10/15 11:56:31;;;;;;;4.70;1.55;;;15.90;99.90;;;;;;5070222;28;20107;-65
2021/10/15 11:59:01;;;;;;;2.83;1.10;;;15.90;99.90;;;;;;5067959;28;20436;-65
2021/10/15 12:01:33;;;;;;;2.28;1.48;;;15.80;99.90;;;;;;5071755;28;20044;-67
2021/10/15 12:04:10;;;;;;;7.00;1.30;;;15.80;99.90;;;;;;5069396;28;20036;-65
2021/10/15 12:06:43;;;;;;;2.35;1.40;;;15.80;99.90;;;;;;5056573;28;20422;-65
2021/10/15 12:09:11;;;;;;;2.40;1.25;;;15.80;99.90;;;;;;5071556;28;20040;-65
2021/10/15 12:11:39;;;;;;;2.72;1.55;;;15.80;99.90;;;;;;5068197;28;20044;-65
2021/10/15 12:14:23;;;;;;;5.50;1.95;;;15.90;99.90;;;;;;5049055;28;20049;-65
2021/10/15 12:17:01;;;;;;;2.10;1.38;;;15.90;99.90;;;;;;5064722;28;20049;-65
2021/10/15 12:19:36;;;;;;;5.20;1.08;;;15.80;99.90;;;;;;5057561;28;20045;-66
2021/10/15 12:22:05;;;;;;;3.25;1.10;;;15.90;99.90;;;;;;5067034;28;20029;-65
2021/10/15 12:24:36;;;;;;;2.47;1.40;;;15.90;99.90;;;;;;5064424;28;20038;-65
2021/10/15 12:27:15;;;;;;;2.53;0.98;;;15.90;99.90;;;;;;5057615;28;20075;-65
2021/10/15 12:29:49;;;;;;;1.77;1.33;;;15.90;99.90;;;;;;5068195;28;20059;-65
2021/10/15 12:32:36;;;;;;;2.55;1.30;;;15.90;99.90;;;;;;5061963;28;20037;-66
2021/10/15 12:35:16;;;;;;;4.15;1.23;;;15.80;99.90;;;;;;5064312;28;20179;-65
2021/10/15 12:37:51;;;;;;;2.75;1.20;;;15.80;99.90;;;;;;5025016;28;20044;-65
2021/10/15 12:40:21;;;;;;;2.30;1.85;;;15.80;99.90;;;;;;5068018;28;20045;-65
2021/10/15 12:42:56;;;;;;;3.63;0.95;;;15.90;99.90;;;;;;5068685;28;20037;-65
2021/10/15 12:45:34;;;;;;;4.38;1.25;;;15.90;99.90;;;;;;5066008;28;20084;-65
2021/10/15 12:48:16;;;;;;;2.20;1.10;;;15.90;99.90;;;;;;5066808;28;20037;-65
2021/10/15 12:51:09;;;;;;;4.65;2.25;;;16.00;99.90;;;;;;5069534;28;20036;-64
2021/10/15 12:53:46;;;;;;;4.97;1.63;;;16.00;99.90;;;;;;5078010;28;20025;-65
2021/10/15 12:56:19;;;;;;;7.80;1.30;;;16.00;99.90;;;;;;5068650;28;20037;-65
2021/10/15 12:58:47;;;;;;;2.97;1.33;;;15.90;99.90;;;;;;5068030;28;20124;-65
2021/10/15 13:01:27;;;;;;;2.38;1.17;;;16.00;99.90;;;;;;5050657;28;20044;-64
2021/10/15 13:03:56;;;;;;;3.17;1.20;;;16.00;99.90;;;;;;5068588;28;20056;-65
2021/10/15 13:06:28;;;;;;;2.55;1.55;;;16.00;99.90;;;;;;5067835;28;20049;-65
2021/10/15 13:08:57;;;;;;;2.58;1.10;;;16.00;99.80;;;;;;5070384;28;20041;-66
2021/10/15 13:11:26;;;;;;;3.95;1.10;;;16.00;99.90;;;;;;5052193;28;20052;-65
2021/10/15 13:13:55;;;;;;;3.22;1.38;;;15.90;99.90;;;;;;5050659;28;20076;-65
2021/10/15 13:16:24;;;;;;;5.85;1.88;;;15.90;99.90;;;;;;5068914;28;20094;-66
2021/10/15 13:18:52;;;;;;;1.85;1.20;;;15.90;99.90;;;;;;5072802;28;20135;-65
2021/10/15 13:21:20;;;;;;;5.38;2.03;;;15.90;99.90;;;;;;5073090;28;20036;-65